sensor_id;sensor_type;location;lat;lon;timestamp;P1;durP1;ratioP1;P2;durP2;ratioP2
9737;SDS011;4908;47.446;13.900;2023-10-13T00:02:10;3.30;;;3.00;;
9737;SDS011;4908;47.446;13.900;2023-10-13T00:04:39;3.10;;;2.80;;
9737;SDS011;4908;47.446;13.900;2023-10-13T00:07:08;3.43;;;2.77;;
9737;SDS011;4908;47.446;13.900;2023-10-13T00:09:35;3.77;;;3.00;;
9737;SDS011;4908;47.446;13.900;2023-10-13T00:12:03;3.80;;;3.20;;
9737;SDS011;4908;47.446;13.900;2023-10-13T00:14:34;3.40;;;3.10;;
9737;SDS011;4908;47.446;13.900;2023-10-13T00:17:04;3.10;;;2.77;;
9737;SDS011;4908;47.446;13.900;2023-10-13T00:19:40;4.90;;;3.30;;
9737;SDS011;4908;47.446;13.900;2023-10-13T00:22:12;5.83;;;3.13;;
9737;SDS011;4908;47.446;13.900;2023-10-13T00:24:41;2.80;;;2.60;;
9737;SDS011;4908;47.446;13.900;2023-10-13T00:27:11;4.23;;;3.07;;
9737;SDS011;4908;47.446;13.900;2023-10-13T00:29:54;3.57;;;3.27;;
9737;SDS011;4908;47.446;13.900;2023-10-13T00:32:43;6.87;;;3.17;;
9737;SDS011;4908;47.446;13.900;2023-10-13T00:35:12;3.10;;;2.80;;
9737;SDS011;4908;47.446;13.900;2023-10-13T00:37:50;4.50;;;2.97;;
9737;SDS011;4908;47.446;13.900;2023-10-13T00:40:18;3.00;;;2.80;;
9737;SDS011;4908;47.446;13.900;2023-10-13T00:43:06;3.00;;;2.80;;
9737;SDS011;4908;47.446;13.900;2023-10-13T00:45:49;3.87;;;2.90;;
9737;SDS011;4908;47.446;13.900;2023-10-13T00:48:24;2.80;;;2.60;;
9737;SDS011;4908;47.446;13.900;2023-10-13T00:50:55;3.07;;;2.87;;
9737;SDS011;4908;47.446;13.900;2023-10-13T00:53:28;3.37;;;3.00;;
9737;SDS011;4908;47.446;13.900;2023-10-13T00:55:55;3.00;;;2.80;;
9737;SDS011;4908;47.446;13.900;2023-10-13T00:58:22;4.27;;;2.97;;
9737;SDS011;4908;47.446;13.900;2023-10-13T01:00:50;3.30;;;3.00;;
9737;SDS011;4908;47.446;13.900;2023-10-13T01:03:27;3.50;;;2.83;;
9737;SDS011;4908;47.446;13.900;2023-10-13T01:05:54;3.27;;;2.97;;
9737;SDS011;4908;47.446;13.900;2023-10-13T01:11:10;3.07;;;2.80;;
9737;SDS011;4908;47.446;13.900;2023-10-13T01:13:38;4.13;;;2.47;;
9737;SDS011;4908;47.446;13.900;2023-10-13T01:16:07;3.63;;;2.77;;
9737;SDS011;4908;47.446;13.900;2023-10-13T01:18:34;5.93;;;3.17;;
9737;SDS011;4908;47.446;13.900;2023-10-13T01:21:13;3.23;;;2.77;;
9737;SDS011;4908;47.446;13.900;2023-10-13T01:23:43;3.90;;;3.00;;
9737;SDS011;4908;47.446;13.900;2023-10-13T01:26:12;3.50;;;2.80;;
9737;SDS011;4908;47.446;13.900;2023-10-13T01:28:49;2.50;;;2.40;;
9737;SDS011;4908;47.446;13.900;2023-10-13T01:31:17;4.40;;;3.13;;
9737;SDS011;4908;47.446;13.900;2023-10-13T01:33:51;4.07;;;3.03;;
9737;SDS011;4908;47.446;13.900;2023-10-13T01:36:20;6.00;;;3.43;;
9737;SDS011;4908;47.446;13.900;2023-10-13T01:38:49;5.33;;;3.00;;
9737;SDS011;4908;47.446;13.900;2023-10-13T01:41:17;3.37;;;2.90;;
9737;SDS011;4908;47.446;13.900;2023-10-13T01:43:44;2.97;;;2.43;;
9737;SDS011;4908;47.446;13.900;2023-10-13T01:46:11;6.50;;;3.00;;
9737;SDS011;4908;47.446;13.900;2023-10-13T01:48:40;3.20;;;2.70;;
9737;SDS011;4908;47.446;13.900;2023-10-13T01:51:09;5.37;;;2.70;;
9737;SDS011;4908;47.446;13.900;2023-10-13T01:53:39;5.57;;;3.20;;
9737;SDS011;4908;47.446;13.900;2023-10-13T01:56:09;3.60;;;2.90;;
9737;SDS011;4908;47.446;13.900;2023-10-13T01:58:36;5.07;;;2.83;;
9737;SDS011;4908;47.446;13.900;2023-10-13T02:01:06;3.07;;;2.77;;
9737;SDS011;4908;47.446;13.900;2023-10-13T02:03:33;3.23;;;2.90;;
9737;SDS011;4908;47.446;13.900;2023-10-13T02:06:05;3.17;;;2.97;;
9737;SDS011;4908;47.446;13.900;2023-10-13T02:08:35;3.77;;;2.70;;
9737;SDS011;4908;47.446;13.900;2023-10-13T02:11:05;4.47;;;2.90;;
9737;SDS011;4908;47.446;13.900;2023-10-13T02:13:34;3.43;;;2.73;;
9737;SDS011;4908;47.446;13.900;2023-10-13T02:16:07;3.93;;;3.53;;
9737;SDS011;4908;47.446;13.900;2023-10-13T02:18:34;5.53;;;2.77;;
9737;SDS011;4908;47.446;13.900;2023-10-13T02:21:06;3.17;;;2.87;;
9737;SDS011;4908;47.446;13.900;2023-10-13T02:23:38;3.60;;;2.40;;
9737;SDS011;4908;47.446;13.900;2023-10-13T02:26:08;4.17;;;3.03;;
9737;SDS011;4908;47.446;13.900;2023-10-13T02:28:39;3.30;;;2.97;;
9737;SDS011;4908;47.446;13.900;2023-10-13T02:31:06;5.27;;;2.40;;
9737;SDS011;4908;47.446;13.900;2023-10-13T02:33:33;4.37;;;2.90;;
9737;SDS011;4908;47.446;13.900;2023-10-13T02:36:02;5.03;;;3.13;;
9737;SDS011;4908;47.446;13.900;2023-10-13T02:38:30;3.70;;;2.90;;
9737;SDS011;4908;47.446;13.900;2023-10-13T02:41:00;3.40;;;3.07;;
9737;SDS011;4908;47.446;13.900;2023-10-13T02:43:32;4.03;;;2.67;;
9737;SDS011;4908;47.446;13.900;2023-10-13T02:46:01;8.33;;;3.13;;
9737;SDS011;4908;47.446;13.900;2023-10-13T02:48:28;5.43;;;3.07;;
9737;SDS011;4908;47.446;13.900;2023-10-13T02:51:05;5.73;;;2.80;;
9737;SDS011;4908;47.446;13.900;2023-10-13T02:53:40;5.07;;;3.17;;
9737;SDS011;4908;47.446;13.900;2023-10-13T02:56:12;6.27;;;3.20;;
9737;SDS011;4908;47.446;13.900;2023-10-13T02:58:39;4.40;;;2.80;;
9737;SDS011;4908;47.446;13.900;2023-10-13T03:01:12;4.43;;;3.20;;
9737;SDS011;4908;47.446;13.900;2023-10-13T03:03:44;2.73;;;2.53;;
9737;SDS011;4908;47.446;13.900;2023-10-13T03:06:15;3.07;;;2.83;;
9737;SDS011;4908;47.446;13.900;2023-10-13T03:08:43;4.13;;;2.87;;
9737;SDS011;4908;47.446;13.900;2023-10-13T03:11:10;3.57;;;3.20;;
9737;SDS011;4908;47.446;13.900;2023-10-13T03:13:37;4.80;;;3.03;;
9737;SDS011;4908;47.446;13.900;2023-10-13T03:16:13;3.10;;;2.90;;
9737;SDS011;4908;47.446;13.900;2023-10-13T03:18:42;3.23;;;3.03;;
9737;SDS011;4908;47.446;13.900;2023-10-13T03:21:19;5.67;;;3.57;;
9737;SDS011;4908;47.446;13.900;2023-10-13T03:23:57;4.47;;;3.27;;
9737;SDS011;4908;47.446;13.900;2023-10-13T03:26:31;4.63;;;3.00;;
9737;SDS011;4908;47.446;13.900;2023-10-13T03:29:02;3.93;;;3.00;;
9737;SDS011;4908;47.446;13.900;2023-10-13T03:31:31;3.63;;;3.33;;
9737;SDS011;4908;47.446;13.900;2023-10-13T03:34:03;6.73;;;2.93;;
9737;SDS011;4908;47.446;13.900;2023-10-13T03:36:35;3.40;;;3.03;;
9737;SDS011;4908;47.446;13.900;2023-10-13T03:39:16;4.93;;;3.07;;
9737;SDS011;4908;47.446;13.900;2023-10-13T03:41:43;6.40;;;3.53;;
9737;SDS011;4908;47.446;13.900;2023-10-13T03:44:18;3.17;;;2.87;;
9737;SDS011;4908;47.446;13.900;2023-10-13T03:46:47;4.73;;;3.00;;
9737;SDS011;4908;47.446;13.900;2023-10-13T03:49:14;4.43;;;3.40;;
9737;SDS011;4908;47.446;13.900;2023-10-13T03:51:47;5.90;;;3.13;;
9737;SDS011;4908;47.446;13.900;2023-10-13T03:54:14;4.00;;;3.03;;
9737;SDS011;4908;47.446;13.900;2023-10-13T03:56:43;4.47;;;3.43;;
9737;SDS011;4908;47.446;13.900;2023-10-13T03:59:11;3.77;;;3.40;;
9737;SDS011;4908;47.446;13.900;2023-10-13T04:01:45;6.77;;;3.57;;
9737;SDS011;4908;47.446;13.900;2023-10-13T04:04:23;3.53;;;3.17;;
9737;SDS011;4908;47.446;13.900;2023-10-13T04:07:00;4.97;;;3.60;;
9737;SDS011;4908;47.446;13.900;2023-10-13T04:09:59;3.80;;;3.27;;
9737;SDS011;4908;47.446;13.900;2023-10-13T04:12:49;7.87;;;3.57;;
9737;SDS011;4908;47.446;13.900;2023-10-13T04:15:33;6.80;;;3.40;;
9737;SDS011;4908;47.446;13.900;2023-10-13T04:18:10;5.07;;;3.40;;
9737;SDS011;4908;47.446;13.900;2023-10-13T04:20:54;5.40;;;3.47;;
9737;SDS011;4908;47.446;13.900;2023-10-13T04:23:33;6.03;;;3.77;;
9737;SDS011;4908;47.446;13.900;2023-10-13T04:26:19;6.77;;;3.27;;
9737;SDS011;4908;47.446;13.900;2023-10-13T04:28:48;3.30;;;3.10;;
9737;SDS011;4908;47.446;13.900;2023-10-13T04:31:18;7.83;;;3.50;;
9737;SDS011;4908;47.446;13.900;2023-10-13T04:34:13;4.20;;;2.87;;
9737;SDS011;4908;47.446;13.900;2023-10-13T04:36:45;4.87;;;3.53;;
9737;SDS011;4908;47.446;13.900;2023-10-13T04:39:20;6.07;;;3.80;;
9737;SDS011;4908;47.446;13.900;2023-10-13T04:42:00;4.20;;;3.30;;
9737;SDS011;4908;47.446;13.900;2023-10-13T04:44:38;5.70;;;3.27;;
9737;SDS011;4908;47.446;13.900;2023-10-13T04:47:13;6.20;;;3.53;;
9737;SDS011;4908;47.446;13.900;2023-10-13T04:49:49;6.73;;;3.30;;
9737;SDS011;4908;47.446;13.900;2023-10-13T04:52:17;6.67;;;3.10;;
9737;SDS011;4908;47.446;13.900;2023-10-13T04:55:02;7.13;;;3.00;;
9737;SDS011;4908;47.446;13.900;2023-10-13T04:57:42;4.60;;;3.07;;
9737;SDS011;4908;47.446;13.900;2023-10-13T05:00:13;8.70;;;3.70;;
9737;SDS011;4908;47.446;13.900;2023-10-13T05:02:58;5.50;;;3.10;;
9737;SDS011;4908;47.446;13.900;2023-10-13T05:06:07;4.43;;;3.20;;
9737;SDS011;4908;47.446;13.900;2023-10-13T05:08:56;7.30;;;3.33;;
9737;SDS011;4908;47.446;13.900;2023-10-13T05:11:40;10.00;;;3.17;;
9737;SDS011;4908;47.446;13.900;2023-10-13T05:14:25;13.87;;;5.93;;
9737;SDS011;4908;47.446;13.900;2023-10-13T05:17:09;13.47;;;4.53;;
9737;SDS011;4908;47.446;13.900;2023-10-13T05:19:55;37.97;;;10.60;;
9737;SDS011;4908;47.446;13.900;2023-10-13T05:22:42;20.63;;;8.43;;
9737;SDS011;4908;47.446;13.900;2023-10-13T05:25:26;14.70;;;7.10;;
9737;SDS011;4908;47.446;13.900;2023-10-13T05:28:11;23.40;;;7.33;;
9737;SDS011;4908;47.446;13.900;2023-10-13T05:30:58;15.57;;;6.73;;
9737;SDS011;4908;47.446;13.900;2023-10-13T05:33:43;16.80;;;6.00;;
9737;SDS011;4908;47.446;13.900;2023-10-13T05:36:27;15.73;;;5.10;;
9737;SDS011;4908;47.446;13.900;2023-10-13T05:39:18;10.63;;;5.10;;
9737;SDS011;4908;47.446;13.900;2023-10-13T05:42:03;12.10;;;4.53;;
9737;SDS011;4908;47.446;13.900;2023-10-13T05:44:47;17.13;;;5.90;;
9737;SDS011;4908;47.446;13.900;2023-10-13T05:47:42;21.63;;;4.93;;
9737;SDS011;4908;47.446;13.900;2023-10-13T05:50:26;6.50;;;4.00;;
9737;SDS011;4908;47.446;13.900;2023-10-13T05:53:15;8.53;;;4.23;;
9737;SDS011;4908;47.446;13.900;2023-10-13T05:56:03;5.80;;;4.37;;
9737;SDS011;4908;47.446;13.900;2023-10-13T05:58:48;4.07;;;3.70;;
9737;SDS011;4908;47.446;13.900;2023-10-13T06:01:33;10.23;;;4.30;;
9737;SDS011;4908;47.446;13.900;2023-10-13T06:04:17;6.93;;;4.23;;
9737;SDS011;4908;47.446;13.900;2023-10-13T06:07:01;7.53;;;4.00;;
9737;SDS011;4908;47.446;13.900;2023-10-13T06:09:46;6.37;;;3.90;;
9737;SDS011;4908;47.446;13.900;2023-10-13T06:12:32;11.73;;;4.07;;
9737;SDS011;4908;47.446;13.900;2023-10-13T06:15:17;7.60;;;4.37;;
9737;SDS011;4908;47.446;13.900;2023-10-13T06:18:01;7.13;;;4.60;;
9737;SDS011;4908;47.446;13.900;2023-10-13T06:20:46;6.30;;;4.07;;
9737;SDS011;4908;47.446;13.900;2023-10-13T06:23:30;8.40;;;3.90;;
9737;SDS011;4908;47.446;13.900;2023-10-13T06:26:17;8.30;;;4.60;;
9737;SDS011;4908;47.446;13.900;2023-10-13T06:29:03;8.07;;;4.20;;
9737;SDS011;4908;47.446;13.900;2023-10-13T06:31:33;7.27;;;4.03;;
9737;SDS011;4908;47.446;13.900;2023-10-13T06:34:01;6.63;;;4.13;;
9737;SDS011;4908;47.446;13.900;2023-10-13T06:36:29;6.60;;;4.30;;
9737;SDS011;4908;47.446;13.900;2023-10-13T06:38:58;7.47;;;4.97;;
9737;SDS011;4908;47.446;13.900;2023-10-13T06:41:39;6.93;;;6.00;;
9737;SDS011;4908;47.446;13.900;2023-10-13T06:44:08;8.77;;;4.80;;
9737;SDS011;4908;47.446;13.900;2023-10-13T06:46:40;6.67;;;4.20;;
9737;SDS011;4908;47.446;13.900;2023-10-13T06:49:08;7.67;;;5.23;;
9737;SDS011;4908;47.446;13.900;2023-10-13T06:51:38;8.03;;;5.67;;
9737;SDS011;4908;47.446;13.900;2023-10-13T06:54:05;7.57;;;4.83;;
9737;SDS011;4908;47.446;13.900;2023-10-13T06:56:44;6.43;;;5.00;;
9737;SDS011;4908;47.446;13.900;2023-10-13T06:59:13;8.30;;;5.10;;
9737;SDS011;4908;47.446;13.900;2023-10-13T07:01:41;6.97;;;4.40;;
9737;SDS011;4908;47.446;13.900;2023-10-13T07:04:10;7.03;;;4.43;;
9737;SDS011;4908;47.446;13.900;2023-10-13T07:06:40;5.03;;;4.40;;
9737;SDS011;4908;47.446;13.900;2023-10-13T07:09:13;6.97;;;5.00;;
9737;SDS011;4908;47.446;13.900;2023-10-13T07:12:02;4.77;;;4.37;;
9737;SDS011;4908;47.446;13.900;2023-10-13T07:14:33;7.37;;;4.70;;
9737;SDS011;4908;47.446;13.900;2023-10-13T07:17:01;5.67;;;5.07;;
9737;SDS011;4908;47.446;13.900;2023-10-13T07:19:30;5.57;;;4.73;;
9737;SDS011;4908;47.446;13.900;2023-10-13T07:21:59;13.90;;;5.77;;
9737;SDS011;4908;47.446;13.900;2023-10-13T07:24:44;6.13;;;4.80;;
9737;SDS011;4908;47.446;13.900;2023-10-13T07:27:14;10.83;;;5.07;;
9737;SDS011;4908;47.446;13.900;2023-10-13T07:29:49;5.87;;;4.93;;
9737;SDS011;4908;47.446;13.900;2023-10-13T07:32:39;6.93;;;4.70;;
9737;SDS011;4908;47.446;13.900;2023-10-13T07:35:10;8.33;;;4.67;;
9737;SDS011;4908;47.446;13.900;2023-10-13T07:37:38;4.83;;;4.43;;
9737;SDS011;4908;47.446;13.900;2023-10-13T07:40:07;10.63;;;5.17;;
9737;SDS011;4908;47.446;13.900;2023-10-13T07:42:48;8.67;;;4.17;;
9737;SDS011;4908;47.446;13.900;2023-10-13T07:45:18;6.13;;;3.80;;
9737;SDS011;4908;47.446;13.900;2023-10-13T07:47:50;8.00;;;4.53;;
9737;SDS011;4908;47.446;13.900;2023-10-13T07:50:17;5.90;;;4.20;;
9737;SDS011;4908;47.446;13.900;2023-10-13T07:52:50;5.20;;;4.00;;
9737;SDS011;4908;47.446;13.900;2023-10-13T07:55:24;6.63;;;4.50;;
9737;SDS011;4908;47.446;13.900;2023-10-13T07:57:51;6.93;;;5.10;;
9737;SDS011;4908;47.446;13.900;2023-10-13T08:00:23;4.17;;;3.87;;
9737;SDS011;4908;47.446;13.900;2023-10-13T08:03:12;7.03;;;4.37;;
9737;SDS011;4908;47.446;13.900;2023-10-13T08:06:00;10.73;;;4.17;;
9737;SDS011;4908;47.446;13.900;2023-10-13T08:08:32;4.67;;;4.00;;
9737;SDS011;4908;47.446;13.900;2023-10-13T08:11:04;6.87;;;4.23;;
9737;SDS011;4908;47.446;13.900;2023-10-13T08:13:49;7.10;;;4.10;;
9737;SDS011;4908;47.446;13.900;2023-10-13T08:16:20;7.43;;;4.27;;
9737;SDS011;4908;47.446;13.900;2023-10-13T08:18:48;6.37;;;4.40;;
9737;SDS011;4908;47.446;13.900;2023-10-13T08:21:15;8.83;;;4.67;;
9737;SDS011;4908;47.446;13.900;2023-10-13T08:23:43;5.47;;;4.37;;
9737;SDS011;4908;47.446;13.900;2023-10-13T08:26:31;8.30;;;4.43;;
9737;SDS011;4908;47.446;13.900;2023-10-13T08:29:15;5.67;;;4.20;;
9737;SDS011;4908;47.446;13.900;2023-10-13T08:32:13;5.53;;;4.57;;
9737;SDS011;4908;47.446;13.900;2023-10-13T08:34:48;10.30;;;4.60;;
9737;SDS011;4908;47.446;13.900;2023-10-13T08:37:34;6.47;;;4.40;;
9737;SDS011;4908;47.446;13.900;2023-10-13T08:40:11;5.40;;;4.50;;
9737;SDS011;4908;47.446;13.900;2023-10-13T08:43:10;6.63;;;4.43;;
9737;SDS011;4908;47.446;13.900;2023-10-13T08:45:37;6.20;;;4.37;;
9737;SDS011;4908;47.446;13.900;2023-10-13T08:48:25;6.17;;;4.20;;
9737;SDS011;4908;47.446;13.900;2023-10-13T08:51:02;5.67;;;3.97;;
9737;SDS011;4908;47.446;13.900;2023-10-13T08:53:56;8.83;;;4.33;;
9737;SDS011;4908;47.446;13.900;2023-10-13T08:56:33;4.33;;;3.93;;
9737;SDS011;4908;47.446;13.900;2023-10-13T08:59:07;5.23;;;3.67;;
9737;SDS011;4908;47.446;13.900;2023-10-13T09:01:35;4.30;;;3.90;;
9737;SDS011;4908;47.446;13.900;2023-10-13T09:04:12;4.53;;;4.10;;
9737;SDS011;4908;47.446;13.900;2023-10-13T09:06:59;6.30;;;3.97;;
9737;SDS011;4908;47.446;13.900;2023-10-13T09:09:44;4.87;;;3.63;;
9737;SDS011;4908;47.446;13.900;2023-10-13T09:12:53;8.60;;;4.57;;
9737;SDS011;4908;47.446;13.900;2023-10-13T09:15:28;8.40;;;4.07;;
9737;SDS011;4908;47.446;13.900;2023-10-13T09:18:23;5.80;;;4.13;;
9737;SDS011;4908;47.446;13.900;2023-10-13T09:21:09;4.93;;;3.50;;
9737;SDS011;4908;47.446;13.900;2023-10-13T09:23:55;10.50;;;4.20;;
9737;SDS011;4908;47.446;13.900;2023-10-13T09:26:42;13.27;;;3.97;;
9737;SDS011;4908;47.446;13.900;2023-10-13T09:29:15;3.53;;;3.03;;
9737;SDS011;4908;47.446;13.900;2023-10-13T09:31:44;6.00;;;3.70;;
9737;SDS011;4908;47.446;13.900;2023-10-13T09:34:25;8.23;;;3.80;;
9737;SDS011;4908;47.446;13.900;2023-10-13T09:36:58;5.73;;;3.37;;
9737;SDS011;4908;47.446;13.900;2023-10-13T09:39:25;3.57;;;3.10;;
9737;SDS011;4908;47.446;13.900;2023-10-13T09:42:10;3.50;;;3.20;;
9737;SDS011;4908;47.446;13.900;2023-10-13T09:44:38;6.63;;;3.70;;
9737;SDS011;4908;47.446;13.900;2023-10-13T09:47:08;5.57;;;3.53;;
9737;SDS011;4908;47.446;13.900;2023-10-13T09:49:43;7.33;;;3.40;;
9737;SDS011;4908;47.446;13.900;2023-10-13T09:52:16;4.37;;;3.50;;
9737;SDS011;4908;47.446;13.900;2023-10-13T09:54:51;3.33;;;3.03;;
9737;SDS011;4908;47.446;13.900;2023-10-13T09:57:29;5.60;;;3.37;;
9737;SDS011;4908;47.446;13.900;2023-10-13T10:00:09;5.77;;;3.33;;
9737;SDS011;4908;47.446;13.900;2023-10-13T10:03:00;4.27;;;2.93;;
9737;SDS011;4908;47.446;13.900;2023-10-13T10:05:40;3.97;;;2.87;;
9737;SDS011;4908;47.446;13.900;2023-10-13T10:08:11;5.13;;;3.17;;
9737;SDS011;4908;47.446;13.900;2023-10-13T10:10:49;3.43;;;3.10;;
9737;SDS011;4908;47.446;13.900;2023-10-13T10:13:28;6.80;;;3.10;;
9737;SDS011;4908;47.446;13.900;2023-10-13T10:16:07;4.10;;;3.17;;
9737;SDS011;4908;47.446;13.900;2023-10-13T10:18:40;7.23;;;2.90;;
9737;SDS011;4908;47.446;13.900;2023-10-13T10:21:08;7.00;;;2.90;;
9737;SDS011;4908;47.446;13.900;2023-10-13T10:23:38;9.70;;;3.43;;
9737;SDS011;4908;47.446;13.900;2023-10-13T10:26:10;7.60;;;2.87;;
9737;SDS011;4908;47.446;13.900;2023-10-13T10:28:41;4.63;;;2.90;;
9737;SDS011;4908;47.446;13.900;2023-10-13T10:31:09;3.43;;;2.70;;
9737;SDS011;4908;47.446;13.900;2023-10-13T10:33:39;5.17;;;2.67;;
9737;SDS011;4908;47.446;13.900;2023-10-13T10:36:06;6.47;;;2.83;;
9737;SDS011;4908;47.446;13.900;2023-10-13T10:38:52;5.83;;;2.90;;
9737;SDS011;4908;47.446;13.900;2023-10-13T10:41:27;3.87;;;3.10;;
9737;SDS011;4908;47.446;13.900;2023-10-13T10:44:09;7.90;;;3.40;;
9737;SDS011;4908;47.446;13.900;2023-10-13T10:46:41;6.73;;;3.43;;
9737;SDS011;4908;47.446;13.900;2023-10-13T10:49:17;7.17;;;3.43;;
9737;SDS011;4908;47.446;13.900;2023-10-13T10:51:53;6.33;;;3.17;;
9737;SDS011;4908;47.446;13.900;2023-10-13T10:54:27;3.63;;;3.03;;
9737;SDS011;4908;47.446;13.900;2023-10-13T10:56:57;9.60;;;3.10;;
9737;SDS011;4908;47.446;13.900;2023-10-13T10:59:36;9.60;;;3.50;;
9737;SDS011;4908;47.446;13.900;2023-10-13T11:02:04;4.43;;;2.90;;
9737;SDS011;4908;47.446;13.900;2023-10-13T11:04:34;8.10;;;3.10;;
9737;SDS011;4908;47.446;13.900;2023-10-13T11:07:06;6.83;;;3.33;;
9737;SDS011;4908;47.446;13.900;2023-10-13T11:09:35;3.83;;;3.20;;
9737;SDS011;4908;47.446;13.900;2023-10-13T11:12:11;6.13;;;3.30;;
9737;SDS011;4908;47.446;13.900;2023-10-13T11:14:58;3.47;;;3.17;;
9737;SDS011;4908;47.446;13.900;2023-10-13T11:17:26;3.73;;;3.23;;
9737;SDS011;4908;47.446;13.900;2023-10-13T11:20:08;7.97;;;3.23;;
9737;SDS011;4908;47.446;13.900;2023-10-13T11:22:41;5.90;;;3.70;;
9737;SDS011;4908;47.446;13.900;2023-10-13T11:25:19;5.80;;;3.17;;
9737;SDS011;4908;47.446;13.900;2023-10-13T11:27:49;4.73;;;3.20;;
9737;SDS011;4908;47.446;13.900;2023-10-13T11:30:24;7.77;;;3.17;;
9737;SDS011;4908;47.446;13.900;2023-10-13T11:33:01;10.37;;;3.37;;
9737;SDS011;4908;47.446;13.900;2023-10-13T11:35:31;3.90;;;2.70;;
9737;SDS011;4908;47.446;13.900;2023-10-13T11:38:12;4.83;;;3.10;;
9737;SDS011;4908;47.446;13.900;2023-10-13T11:40:42;5.03;;;2.83;;
9737;SDS011;4908;47.446;13.900;2023-10-13T11:43:32;7.87;;;3.60;;
9737;SDS011;4908;47.446;13.900;2023-10-13T11:46:10;3.27;;;3.00;;
9737;SDS011;4908;47.446;13.900;2023-10-13T11:48:40;8.50;;;3.17;;
9737;SDS011;4908;47.446;13.900;2023-10-13T11:51:08;4.07;;;3.10;;
9737;SDS011;4908;47.446;13.900;2023-10-13T11:53:42;14.50;;;3.73;;
9737;SDS011;4908;47.446;13.900;2023-10-13T11:56:11;3.43;;;3.13;;
9737;SDS011;4908;47.446;13.900;2023-10-13T11:58:38;5.87;;;3.37;;
9737;SDS011;4908;47.446;13.900;2023-10-13T12:01:06;8.37;;;2.90;;
9737;SDS011;4908;47.446;13.900;2023-10-13T12:03:47;7.10;;;3.20;;
9737;SDS011;4908;47.446;13.900;2023-10-13T12:06:32;6.27;;;3.03;;
9737;SDS011;4908;47.446;13.900;2023-10-13T12:09:12;6.53;;;3.17;;
9737;SDS011;4908;47.446;13.900;2023-10-13T12:12:03;4.93;;;2.60;;
9737;SDS011;4908;47.446;13.900;2023-10-13T12:14:30;7.00;;;3.03;;
9737;SDS011;4908;47.446;13.900;2023-10-13T12:17:02;5.90;;;2.70;;
9737;SDS011;4908;47.446;13.900;2023-10-13T12:19:36;4.88;;;2.90;;
9737;SDS011;4908;47.446;13.900;2023-10-13T12:22:06;4.82;;;2.45;;
9737;SDS011;4908;47.446;13.900;2023-10-13T12:24:34;4.30;;;2.65;;
9737;SDS011;4908;47.446;13.900;2023-10-13T12:27:09;3.50;;;2.70;;
9737;SDS011;4908;47.446;13.900;2023-10-13T12:29:45;5.03;;;2.65;;
9737;SDS011;4908;47.446;13.900;2023-10-13T12:32:13;4.60;;;2.45;;
9737;SDS011;4908;47.446;13.900;2023-10-13T12:34:46;6.70;;;2.78;;
9737;SDS011;4908;47.446;13.900;2023-10-13T12:37:25;5.90;;;2.35;;
9737;SDS011;4908;47.446;13.900;2023-10-13T12:40:16;4.55;;;2.40;;
9737;SDS011;4908;47.446;13.900;2023-10-13T12:43:03;5.28;;;2.28;;
9737;SDS011;4908;47.446;13.900;2023-10-13T12:45:48;7.25;;;2.60;;
9737;SDS011;4908;47.446;13.900;2023-10-13T12:48:34;6.53;;;2.28;;
9737;SDS011;4908;47.446;13.900;2023-10-13T12:51:20;4.00;;;2.22;;
9737;SDS011;4908;47.446;13.900;2023-10-13T12:54:05;3.90;;;2.60;;
9737;SDS011;4908;47.446;13.900;2023-10-13T12:56:40;3.70;;;2.45;;
9737;SDS011;4908;47.446;13.900;2023-10-13T12:59:10;10.10;;;2.67;;
9737;SDS011;4908;47.446;13.900;2023-10-13T13:01:39;5.60;;;2.63;;
9737;SDS011;4908;47.446;13.900;2023-10-13T13:04:08;8.52;;;2.53;;
9737;SDS011;4908;47.446;13.900;2023-10-13T13:06:43;4.72;;;2.58;;
9737;SDS011;4908;47.446;13.900;2023-10-13T13:09:10;9.98;;;2.58;;
9737;SDS011;4908;47.446;13.900;2023-10-13T13:11:38;4.32;;;2.35;;
9737;SDS011;4908;47.446;13.900;2023-10-13T13:14:06;4.55;;;2.70;;
9737;SDS011;4908;47.446;13.900;2023-10-13T13:16:35;4.25;;;2.50;;
9737;SDS011;4908;47.446;13.900;2023-10-13T13:19:04;6.40;;;3.00;;
9737;SDS011;4908;47.446;13.900;2023-10-13T13:21:39;6.75;;;2.90;;
9737;SDS011;4908;47.446;13.900;2023-10-13T13:24:07;9.80;;;2.45;;
9737;SDS011;4908;47.446;13.900;2023-10-13T13:26:36;3.03;;;2.50;;
9737;SDS011;4908;47.446;13.900;2023-10-13T13:29:06;6.85;;;2.63;;
9737;SDS011;4908;47.446;13.900;2023-10-13T13:31:37;12.43;;;2.72;;
9737;SDS011;4908;47.446;13.900;2023-10-13T13:34:08;4.10;;;2.47;;
9737;SDS011;4908;47.446;13.900;2023-10-13T13:36:38;6.25;;;2.45;;
9737;SDS011;4908;47.446;13.900;2023-10-13T13:39:09;4.72;;;4.25;;
9737;SDS011;4908;47.446;13.900;2023-10-13T13:41:36;5.47;;;2.65;;
9737;SDS011;4908;47.446;13.900;2023-10-13T13:44:04;7.40;;;2.92;;
9737;SDS011;4908;47.446;13.900;2023-10-13T13:46:41;5.97;;;2.80;;
9737;SDS011;4908;47.446;13.900;2023-10-13T13:49:09;6.70;;;2.75;;
9737;SDS011;4908;47.446;13.900;2023-10-13T13:51:43;6.85;;;2.63;;
9737;SDS011;4908;47.446;13.900;2023-10-13T13:54:17;4.53;;;3.00;;
9737;SDS011;4908;47.446;13.900;2023-10-13T13:56:46;3.42;;;2.95;;
9737;SDS011;4908;47.446;13.900;2023-10-13T13:59:13;4.38;;;3.15;;
9737;SDS011;4908;47.446;13.900;2023-10-13T14:01:46;9.63;;;3.35;;
9737;SDS011;4908;47.446;13.900;2023-10-13T14:04:13;7.10;;;3.35;;
9737;SDS011;4908;47.446;13.900;2023-10-13T14:06:43;5.88;;;2.60;;
9737;SDS011;4908;47.446;13.900;2023-10-13T14:09:11;4.38;;;2.38;;
9737;SDS011;4908;47.446;13.900;2023-10-13T14:11:50;6.03;;;3.10;;
9737;SDS011;4908;47.446;13.900;2023-10-13T14:14:34;5.78;;;2.70;;
9737;SDS011;4908;47.446;13.900;2023-10-13T14:17:03;5.25;;;2.67;;
9737;SDS011;4908;47.446;13.900;2023-10-13T14:19:33;3.38;;;2.70;;
9737;SDS011;4908;47.446;13.900;2023-10-13T14:22:05;4.55;;;2.63;;
9737;SDS011;4908;47.446;13.900;2023-10-13T14:24:33;7.25;;;2.53;;
9737;SDS011;4908;47.446;13.900;2023-10-13T14:27:08;6.55;;;2.80;;
9737;SDS011;4908;47.446;13.900;2023-10-13T14:29:41;6.30;;;3.17;;
9737;SDS011;4908;47.446;13.900;2023-10-13T14:32:12;5.82;;;2.78;;
9737;SDS011;4908;47.446;13.900;2023-10-13T14:34:40;7.55;;;2.85;;
9737;SDS011;4908;47.446;13.900;2023-10-13T14:37:08;4.20;;;3.00;;
9737;SDS011;4908;47.446;13.900;2023-10-13T14:39:38;7.70;;;2.90;;
9737;SDS011;4908;47.446;13.900;2023-10-13T14:42:05;5.55;;;2.85;;
9737;SDS011;4908;47.446;13.900;2023-10-13T14:44:32;4.28;;;2.90;;
9737;SDS011;4908;47.446;13.900;2023-10-13T14:46:59;6.15;;;2.80;;
9737;SDS011;4908;47.446;13.900;2023-10-13T14:49:28;9.45;;;2.80;;
9737;SDS011;4908;47.446;13.900;2023-10-13T14:51:55;5.85;;;2.90;;
9737;SDS011;4908;47.446;13.900;2023-10-13T14:54:24;6.03;;;2.85;;
9737;SDS011;4908;47.446;13.900;2023-10-13T14:57:00;10.40;;;3.00;;
9737;SDS011;4908;47.446;13.900;2023-10-13T14:59:28;7.35;;;2.80;;
9737;SDS011;4908;47.446;13.900;2023-10-13T15:01:59;6.30;;;3.00;;
9737;SDS011;4908;47.446;13.900;2023-10-13T15:04:29;5.68;;;2.90;;
9737;SDS011;4908;47.446;13.900;2023-10-13T15:06:58;9.18;;;2.88;;
9737;SDS011;4908;47.446;13.900;2023-10-13T15:09:27;5.70;;;2.67;;
9737;SDS011;4908;47.446;13.900;2023-10-13T15:11:54;6.50;;;2.55;;
9737;SDS011;4908;47.446;13.900;2023-10-13T15:14:22;3.88;;;2.53;;
9737;SDS011;4908;47.446;13.900;2023-10-13T15:16:50;3.63;;;2.50;;
9737;SDS011;4908;47.446;13.900;2023-10-13T15:19:18;2.97;;;2.40;;
9737;SDS011;4908;47.446;13.900;2023-10-13T15:21:47;6.72;;;3.00;;
9737;SDS011;4908;47.446;13.900;2023-10-13T15:24:15;5.05;;;2.50;;
9737;SDS011;4908;47.446;13.900;2023-10-13T15:26:43;5.43;;;2.75;;
9737;SDS011;4908;47.446;13.900;2023-10-13T15:29:14;9.73;;;2.72;;
9737;SDS011;4908;47.446;13.900;2023-10-13T15:31:43;2.58;;;2.28;;
9737;SDS011;4908;47.446;13.900;2023-10-13T15:34:29;6.43;;;3.08;;
9737;SDS011;4908;47.446;13.900;2023-10-13T15:36:59;6.73;;;2.70;;
9737;SDS011;4908;47.446;13.900;2023-10-13T15:39:30;4.40;;;2.83;;
9737;SDS011;4908;47.446;13.900;2023-10-13T15:41:57;5.77;;;3.40;;
9737;SDS011;4908;47.446;13.900;2023-10-13T15:44:24;8.27;;;3.70;;
9737;SDS011;4908;47.446;13.900;2023-10-13T15:46:55;6.57;;;3.60;;
9737;SDS011;4908;47.446;13.900;2023-10-13T15:49:24;6.90;;;4.50;;